sensor_id;sensor_type;location;lat;lon;timestamp;pressure;altitude;pressure_sealevel;temperature;humidity
32492;BME280;20605;49.742;18.802;2022-08-26T00:00:52;97675.25;;;18.89;100.00
32492;BME280;20605;49.742;18.802;2022-08-26T00:03:19;97669.70;;;18.86;100.00
32492;BME280;20605;49.742;18.802;2022-08-26T00:05:47;97671.80;;;18.81;100.00
32492;BME280;20605;49.742;18.802;2022-08-26T00:08:17;97670.48;;;18.81;100.00
32492;BME280;20605;49.742;18.802;2022-08-26T00:10:44;97668.69;;;18.82;100.00
32492;BME280;20605;49.742;18.802;2022-08-26T00:13:11;97662.56;;;18.81;100.00
32492;BME280;20605;49.742;18.802;2022-08-26T00:15:38;97662.30;;;18.79;100.00
32492;BME280;20605;49.742;18.802;2022-08-26T00:18:05;97659.97;;;18.74;100.00
32492;BME280;20605;49.742;18.802;2022-08-26T00:20:33;97666.66;;;18.73;100.00
32492;BME280;20605;49.742;18.802;2022-08-26T00:23:01;97666.30;;;18.72;100.00
32492;BME280;20605;49.742;18.802;2022-08-26T00:25:28;97663.76;;;18.70;100.00
32492;BME280;20605;49.742;18.802;2022-08-26T00:27:54;97662.06;;;18.69;100.00
32492;BME280;20605;49.742;18.802;2022-08-26T00:30:24;97659.33;;;18.71;100.00
32492;BME280;20605;49.742;18.802;2022-08-26T00:32:52;97657.43;;;18.73;100.00
32492;BME280;20605;49.742;18.802;2022-08-26T00:35:19;97658.91;;;18.77;100.00
32492;BME280;20605;49.742;18.802;2022-08-26T00:37:47;97653.91;;;18.79;100.00
32492;BME280;20605;49.742;18.802;2022-08-26T00:40:24;97653.27;;;18.76;100.00
32492;BME280;20605;49.742;18.802;2022-08-26T00:42:48;97664.13;;;18.71;100.00
32492;BME280;20605;49.742;18.802;2022-08-26T00:45:16;97655.37;;;18.71;100.00
32492;BME280;20605;49.742;18.802;2022-08-26T00:47:46;97659.90;;;18.69;100.00
32492;BME280;20605;49.742;18.802;2022-08-26T00:50:28;97653.71;;;18.63;100.00
32492;BME280;20605;49.742;18.802;2022-08-26T00:52:57;97650.40;;;18.59;100.00
32492;BME280;20605;49.742;18.802;2022-08-26T00:55:37;97644.95;;;18.55;100.00
32492;BME280;20605;49.742;18.802;2022-08-26T00:58:06;97651.28;;;18.52;100.00
32492;BME280;20605;49.742;18.802;2022-08-26T01:00:33;97646.10;;;18.51;100.00
32492;BME280;20605;49.742;18.802;2022-08-26T01:03:01;97651.95;;;18.49;100.00
32492;BME280;20605;49.742;18.802;2022-08-26T01:05:29;97651.31;;;18.45;100.00
32492;BME280;20605;49.742;18.802;2022-08-26T01:07:56;97641.16;;;18.39;100.00
32492;BME280;20605;49.742;18.802;2022-08-26T01:10:25;97642.68;;;18.36;100.00
32492;BME280;20605;49.742;18.802;2022-08-26T01:12:55;97644.20;;;18.33;100.00
32492;BME280;20605;49.742;18.802;2022-08-26T01:15:31;97640.62;;;18.34;100.00
32492;BME280;20605;49.742;18.802;2022-08-26T01:17:58;97650.12;;;18.37;100.00
32492;BME280;20605;49.742;18.802;2022-08-26T01:23:15;97641.64;;;18.39;100.00
32492;BME280;20605;49.742;18.802;2022-08-26T01:25:45;97648.59;;;18.40;100.00
32492;BME280;20605;49.742;18.802;2022-08-26T01:28:20;97642.85;;;18.40;100.00
32492;BME280;20605;49.742;18.802;2022-08-26T01:30:49;97647.92;;;18.43;100.00
32492;BME280;20605;49.742;18.802;2022-08-26T01:36:27;97644.34;;;18.44;100.00
32492;BME280;20605;49.742;18.802;2022-08-26T01:38:54;97644.17;;;18.40;100.00
32492;BME280;20605;49.742;18.802;2022-08-26T01:41:22;97641.94;;;18.34;100.00
32492;BME280;20605;49.742;18.802;2022-08-26T01:43:52;97640.55;;;18.29;100.00
32492;BME280;20605;49.742;18.802;2022-08-26T01:46:21;97635.57;;;18.24;100.00
32492;BME280;20605;49.742;18.802;2022-08-26T01:48:50;97641.17;;;18.19;100.00
32492;BME280;20605;49.742;18.802;2022-08-26T01:51:19;97643.16;;;18.16;100.00
32492;BME280;20605;49.742;18.802;2022-08-26T01:53:48;97642.69;;;18.16;100.00
32492;BME280;20605;49.742;18.802;2022-08-26T01:56:15;97652.06;;;18.20;100.00
32492;BME280;20605;49.742;18.802;2022-08-26T01:58:45;97641.27;;;18.18;100.00
32492;BME280;20605;49.742;18.802;2022-08-26T02:01:24;97637.69;;;18.19;100.00
32492;BME280;20605;49.742;18.802;2022-08-26T02:04:14;97634.69;;;18.18;100.00
32492;BME280;20605;49.742;18.802;2022-08-26T02:06:42;97633.77;;;18.12;100.00
32492;BME280;20605;49.742;18.802;2022-08-26T02:09:10;97630.67;;;18.05;100.00
32492;BME280;20605;49.742;18.802;2022-08-26T02:11:37;97630.40;;;18.03;100.00
32492;BME280;20605;49.742;18.802;2022-08-26T02:14:09;97628.34;;;18.01;100.00
32492;BME280;20605;49.742;18.802;2022-08-26T02:16:40;97629.85;;;17.98;100.00
32492;BME280;20605;49.742;18.802;2022-08-26T02:19:12;97627.41;;;17.95;100.00
32492;BME280;20605;49.742;18.802;2022-08-26T02:21:41;97625.45;;;17.91;100.00
32492;BME280;20605;49.742;18.802;2022-08-26T02:24:11;97625.17;;;17.88;100.00
32492;BME280;20605;49.742;18.802;2022-08-26T02:26:40;97631.95;;;17.85;100.00
32492;BME280;20605;49.742;18.802;2022-08-26T02:29:18;97635.53;;;17.84;100.00
32492;BME280;20605;49.742;18.802;2022-08-26T02:31:42;97631.77;;;17.81;100.00
32492;BME280;20605;49.742;18.802;2022-08-26T02:34:11;97637.04;;;17.81;100.00
32492;BME280;20605;49.742;18.802;2022-08-26T02:36:40;97632.72;;;17.80;100.00
32492;BME280;20605;49.742;18.802;2022-08-26T02:39:08;97636.19;;;17.81;100.00
32492;BME280;20605;49.742;18.802;2022-08-26T02:41:35;97630.55;;;17.80;100.00
32492;BME280;20605;49.742;18.802;2022-08-26T02:44:02;97636.29;;;17.79;100.00
32492;BME280;20605;49.742;18.802;2022-08-26T02:46:29;97631.69;;;17.76;100.00
32492;BME280;20605;49.742;18.802;2022-08-26T02:48:56;97627.83;;;17.74;100.00
32492;BME280;20605;49.742;18.802;2022-08-26T02:51:24;97631.31;;;17.75;100.00
32492;BME280;20605;49.742;18.802;2022-08-26T02:53:50;97626.89;;;17.75;100.00
32492;BME280;20605;49.742;18.802;2022-08-26T02:56:17;97624.16;;;17.77;100.00
32492;BME280;20605;49.742;18.802;2022-08-26T02:58:44;97629.52;;;17.75;100.00
32492;BME280;20605;49.742;18.802;2022-08-26T03:01:26;97634.14;;;17.72;100.00
32492;BME280;20605;49.742;18.802;2022-08-26T03:03:55;97630.75;;;17.70;100.00
32492;BME280;20605;49.742;18.802;2022-08-26T03:06:22;97635.55;;;17.70;100.00
32492;BME280;20605;49.742;18.802;2022-08-26T03:08:50;97630.19;;;17.72;100.00
32492;BME280;20605;49.742;18.802;2022-08-26T03:11:18;97632.45;;;17.71;100.00
32492;BME280;20605;49.742;18.802;2022-08-26T03:13:45;97629.34;;;17.71;100.00
32492;BME280;20605;49.742;18.802;2022-08-26T03:16:12;97631.69;;;17.76;100.00
32492;BME280;20605;49.742;18.802;2022-08-26T03:18:38;97634.97;;;17.79;100.00
32492;BME280;20605;49.742;18.802;2022-08-26T03:21:06;97632.05;;;17.84;100.00
32492;BME280;20605;49.742;18.802;2022-08-26T03:23:37;97627.52;;;17.86;100.00
32492;BME280;20605;49.742;18.802;2022-08-26T03:26:05;97626.86;;;17.89;100.00
32492;BME280;20605;49.742;18.802;2022-08-26T03:28:32;97629.48;;;17.97;100.00
32492;BME280;20605;49.742;18.802;2022-08-26T03:31:00;97624.28;;;18.02;100.00
32492;BME280;20605;49.742;18.802;2022-08-26T03:33:27;97617.77;;;18.08;100.00
32492;BME280;20605;49.742;18.802;2022-08-26T03:35:54;97617.03;;;18.06;100.00
32492;BME280;20605;49.742;18.802;2022-08-26T03:38:22;97617.22;;;18.03;100.00
32492;BME280;20605;49.742;18.802;2022-08-26T03:40:50;97619.13;;;17.93;100.00
32492;BME280;20605;49.742;18.802;2022-08-26T03:43:17;97614.45;;;17.84;100.00
32492;BME280;20605;49.742;18.802;2022-08-26T03:45:45;97614.56;;;17.76;100.00
32492;BME280;20605;49.742;18.802;2022-08-26T03:48:11;97616.36;;;17.68;100.00
32492;BME280;20605;49.742;18.802;2022-08-26T03:50:38;97614.45;;;17.63;100.00
32492;BME280;20605;49.742;18.802;2022-08-26T03:53:05;97616.91;;;17.59;100.00
32492;BME280;20605;49.742;18.802;2022-08-26T03:55:31;97606.66;;;17.61;100.00
32492;BME280;20605;49.742;18.802;2022-08-26T03:57:59;97606.46;;;17.65;100.00
32492;BME280;20605;49.742;18.802;2022-08-26T04:00:26;97609.31;;;17.69;100.00
32492;BME280;20605;49.742;18.802;2022-08-26T04:02:52;97600.94;;;17.69;100.00
32492;BME280;20605;49.742;18.802;2022-08-26T04:05:21;97602.72;;;17.69;100.00
32492;BME280;20605;49.742;18.802;2022-08-26T04:07:48;97598.49;;;17.66;100.00
32492;BME280;20605;49.742;18.802;2022-08-26T04:10:17;97601.66;;;17.64;100.00
32492;BME280;20605;49.742;18.802;2022-08-26T04:12:46;97599.34;;;17.67;100.00
32492;BME280;20605;49.742;18.802;2022-08-26T04:15:14;97602.72;;;17.69;100.00
32492;BME280;20605;49.742;18.802;2022-08-26T04:17:41;97606.38;;;17.73;100.00
32492;BME280;20605;49.742;18.802;2022-08-26T04:20:09;97609.20;;;17.77;100.00
32492;BME280;20605;49.742;18.802;2022-08-26T04:22:38;97610.31;;;17.80;100.00
32492;BME280;20605;49.742;18.802;2022-08-26T04:25:07;97606.37;;;17.80;100.00
32492;BME280;20605;49.742;18.802;2022-08-26T04:27:34;97609.20;;;17.77;100.00
32492;BME280;20605;49.742;18.802;2022-08-26T04:30:01;97605.62;;;17.78;100.00
32492;BME280;20605;49.742;18.802;2022-08-26T04:32:29;97604.11;;;17.81;100.00
32492;BME280;20605;49.742;18.802;2022-08-26T04:34:56;97602.32;;;17.82;100.00
32492;BME280;20605;49.742;18.802;2022-08-26T04:37:22;97601.84;;;17.82;100.00
32492;BME280;20605;49.742;18.802;2022-08-26T04:39:51;97602.59;;;17.84;100.00
32492;BME280;20605;49.742;18.802;2022-08-26T04:42:18;97599.19;;;17.89;100.00
32492;BME280;20605;49.742;18.802;2022-08-26T04:44:45;97605.11;;;17.93;100.00
32492;BME280;20605;49.742;18.802;2022-08-26T04:47:11;97602.18;;;17.98;100.00
32492;BME280;20605;49.742;18.802;2022-08-26T04:49:38;97603.58;;;18.03;100.00
32492;BME280;20605;49.742;18.802;2022-08-26T04:52:05;97609.74;;;18.16;100.00
32492;BME280;20605;49.742;18.802;2022-08-26T04:54:32;97601.95;;;18.28;100.00
32492;BME280;20605;49.742;18.802;2022-08-26T04:56:59;97600.80;;;18.51;100.00
32492;BME280;20605;49.742;18.802;2022-08-26T04:59:26;97604.98;;;18.81;100.00
32492;BME280;20605;49.742;18.802;2022-08-26T05:01:53;97601.14;;;19.05;100.00
32492;BME280;20605;49.742;18.802;2022-08-26T05:04:24;97600.81;;;19.35;100.00
32492;BME280;20605;49.742;18.802;2022-08-26T05:06:59;97594.54;;;19.79;100.00
32492;BME280;20605;49.742;18.802;2022-08-26T05:09:26;97600.97;;;20.12;100.00
32492;BME280;20605;49.742;18.802;2022-08-26T05:12:01;97603.21;;;20.47;100.00
32492;BME280;20605;49.742;18.802;2022-08-26T05:14:33;97597.13;;;20.64;100.00
32492;BME280;20605;49.742;18.802;2022-08-26T05:17:00;97602.10;;;20.91;100.00
32492;BME280;20605;49.742;18.802;2022-08-26T05:19:28;97604.20;;;21.21;100.00
32492;BME280;20605;49.742;18.802;2022-08-26T05:21:55;97600.74;;;21.42;100.00
32492;BME280;20605;49.742;18.802;2022-08-26T05:24:21;97607.84;;;21.70;100.00
32492;BME280;20605;49.742;18.802;2022-08-26T05:26:48;97607.47;;;21.80;100.00
32492;BME280;20605;49.742;18.802;2022-08-26T05:29:15;97603.95;;;22.02;100.00
32492;BME280;20605;49.742;18.802;2022-08-26T05:31:42;97600.39;;;22.50;100.00
32492;BME280;20605;49.742;18.802;2022-08-26T05:34:09;97602.81;;;22.80;100.00
32492;BME280;20605;49.742;18.802;2022-08-26T05:36:36;97603.36;;;22.89;100.00
32492;BME280;20605;49.742;18.802;2022-08-26T05:39:04;97601.01;;;23.16;100.00
32492;BME280;20605;49.742;18.802;2022-08-26T05:41:34;97596.30;;;23.44;100.00
32492;BME280;20605;49.742;18.802;2022-08-26T05:44:04;97598.59;;;23.99;100.00
32492;BME280;20605;49.742;18.802;2022-08-26T05:46:33;97596.80;;;24.44;100.00
32492;BME280;20605;49.742;18.802;2022-08-26T05:49:00;97594.27;;;24.52;100.00
32492;BME280;20605;49.742;18.802;2022-08-26T05:51:29;97593.36;;;24.47;100.00
32492;BME280;20605;49.742;18.802;2022-08-26T05:53:56;97592.59;;;24.60;100.00
32492;BME280;20605;49.742;18.802;2022-08-26T05:56:23;97598.84;;;24.88;100.00
32492;BME280;20605;49.742;18.802;2022-08-26T05:58:50;97593.28;;;25.15;100.00
32492;BME280;20605;49.742;18.802;2022-08-26T06:01:20;97591.77;;;25.26;100.00
32492;BME280;20605;49.742;18.802;2022-08-26T06:03:50;97591.81;;;25.53;100.00
32492;BME280;20605;49.742;18.802;2022-08-26T06:06:20;97589.88;;;25.83;100.00
32492;BME280;20605;49.742;18.802;2022-08-26T06:08:49;97579.14;;;26.10;100.00
32492;BME280;20605;49.742;18.802;2022-08-26T06:11:19;97583.89;;;26.48;100.00
32492;BME280;20605;49.742;18.802;2022-08-26T06:13:49;97577.53;;;27.06;100.00
32492;BME280;20605;49.742;18.802;2022-08-26T06:16:19;97576.34;;;28.11;100.00
32492;BME280;20605;49.742;18.802;2022-08-26T06:18:49;97578.62;;;28.93;100.00
32492;BME280;20605;49.742;18.802;2022-08-26T06:21:22;97581.23;;;29.45;100.00
32492;BME280;20605;49.742;18.802;2022-08-26T06:23:54;97583.19;;;29.64;100.00
32492;BME280;20605;49.742;18.802;2022-08-26T06:26:49;97586.43;;;29.90;100.00
32492;BME280;20605;49.742;18.802;2022-08-26T06:29:19;97585.37;;;30.30;100.00
32492;BME280;20605;49.742;18.802;2022-08-26T06:31:47;97590.72;;;31.03;100.00
32492;BME280;20605;49.742;18.802;2022-08-26T06:34:14;97596.23;;;32.13;100.00
32492;BME280;20605;49.742;18.802;2022-08-26T06:36:43;97591.03;;;33.00;100.00
32492;BME280;20605;49.742;18.802;2022-08-26T06:39:12;97592.30;;;33.78;100.00
32492;BME280;20605;49.742;18.802;2022-08-26T06:41:41;97596.52;;;34.34;100.00
32492;BME280;20605;49.742;18.802;2022-08-26T06:44:13;97596.84;;;34.86;97.69
32492;BME280;20605;49.742;18.802;2022-08-26T06:46:41;97596.00;;;35.31;97.45
32492;BME280;20605;49.742;18.802;2022-08-26T06:49:08;97591.23;;;36.11;95.58
32492;BME280;20605;49.742;18.802;2022-08-26T06:51:37;97593.89;;;36.78;93.48
32492;BME280;20605;49.742;18.802;2022-08-26T06:54:05;97592.52;;;37.35;89.99
32492;BME280;20605;49.742;18.802;2022-08-26T06:56:35;97592.17;;;37.59;88.02
32492;BME280;20605;49.742;18.802;2022-08-26T06:59:06;97586.66;;;37.93;86.56
32492;BME280;20605;49.742;18.802;2022-08-26T07:01:40;97582.27;;;38.10;84.10
32492;BME280;20605;49.742;18.802;2022-08-26T07:04:13;97585.52;;;38.09;82.44
32492;BME280;20605;49.742;18.802;2022-08-26T07:06:42;97589.39;;;38.59;81.49
32492;BME280;20605;49.742;18.802;2022-08-26T07:09:12;97586.23;;;38.95;78.34
32492;BME280;20605;49.742;18.802;2022-08-26T07:11:38;97584.66;;;39.20;77.64
32492;BME280;20605;49.742;18.802;2022-08-26T07:14:06;97587.97;;;39.33;77.18
32492;BME280;20605;49.742;18.802;2022-08-26T07:16:33;97588.17;;;39.64;75.96
32492;BME280;20605;49.742;18.802;2022-08-26T07:19:00;97589.16;;;39.96;74.09
32492;BME280;20605;49.742;18.802;2022-08-26T07:21:28;97592.14;;;40.08;74.43
32492;BME280;20605;49.742;18.802;2022-08-26T07:23:54;97593.04;;;40.40;73.33
32492;BME280;20605;49.742;18.802;2022-08-26T07:26:24;97585.37;;;40.82;72.55
32492;BME280;20605;49.742;18.802;2022-08-26T07:28:54;97586.86;;;41.21;72.08
32492;BME280;20605;49.742;18.802;2022-08-26T07:31:24;97579.44;;;41.35;69.89
32492;BME280;20605;49.742;18.802;2022-08-26T07:33:52;97573.06;;;41.30;68.59
32492;BME280;20605;49.742;18.802;2022-08-26T07:36:20;97573.87;;;41.47;69.01
32492;BME280;20605;49.742;18.802;2022-08-26T07:38:48;97578.47;;;41.63;67.16
32492;BME280;20605;49.742;18.802;2022-08-26T07:41:18;97569.36;;;41.77;66.71
32492;BME280;20605;49.742;18.802;2022-08-26T07:43:47;97570.50;;;41.81;64.75
32492;BME280;20605;49.742;18.802;2022-08-26T07:46:14;97574.73;;;41.69;64.66
32492;BME280;20605;49.742;18.802;2022-08-26T07:48:43;97570.28;;;41.85;65.12
32492;BME280;20605;49.742;18.802;2022-08-26T07:51:15;97563.98;;;42.04;63.01
32492;BME280;20605;49.742;18.802;2022-08-26T07:53:44;97569.58;;;42.14;62.62
32492;BME280;20605;49.742;18.802;2022-08-26T07:56:13;97565.75;;;42.40;62.54
32492;BME280;20605;49.742;18.802;2022-08-26T07:58:40;97568.80;;;42.68;60.46
32492;BME280;20605;49.742;18.802;2022-08-26T08:01:06;97565.47;;;42.63;61.12
32492;BME280;20605;49.742;18.802;2022-08-26T08:03:33;97571.06;;;42.76;61.58
32492;BME280;20605;49.742;18.802;2022-08-26T08:06:00;97565.95;;;43.21;60.42
32492;BME280;20605;49.742;18.802;2022-08-26T08:08:27;97566.37;;;43.38;58.92
32492;BME280;20605;49.742;18.802;2022-08-26T08:10:55;97566.98;;;43.47;58.36
32492;BME280;20605;49.742;18.802;2022-08-26T08:13:22;97566.30;;;43.67;58.09
32492;BME280;20605;49.742;18.802;2022-08-26T08:15:49;97560.58;;;43.76;57.67
32492;BME280;20605;49.742;18.802;2022-08-26T08:18:16;97559.27;;;43.89;56.79
32492;BME280;20605;49.742;18.802;2022-08-26T08:20:43;97554.11;;;44.03;56.88
32492;BME280;20605;49.742;18.802;2022-08-26T08:23:11;97556.38;;;44.23;55.97
32492;BME280;20605;49.742;18.802;2022-08-26T08:25:37;97553.64;;;44.29;55.64
32492;BME280;20605;49.742;18.802;2022-08-26T08:28:04;97551.98;;;44.25;55.99
32492;BME280;20605;49.742;18.802;2022-08-26T08:30:31;97555.36;;;44.45;55.70
32492;BME280;20605;49.742;18.802;2022-08-26T08:32:57;97546.59;;;44.66;54.06
32492;BME280;20605;49.742;18.802;2022-08-26T08:35:24;97551.54;;;44.71;54.72
32492;BME280;20605;49.742;18.802;2022-08-26T08:37:52;97540.83;;;44.77;52.89
32492;BME280;20605;49.742;18.802;2022-08-26T08:40:23;97543.84;;;44.71;52.79
32492;BME280;20605;49.742;18.802;2022-08-26T08:43:06;97546.80;;;44.36;52.63
32492;BME280;20605;49.742;18.802;2022-08-26T08:45:49;97543.22;;;44.38;53.01
32492;BME280;20605;49.742;18.802;2022-08-26T08:51:01;97540.82;;;44.67;51.79
32492;BME280;20605;49.742;18.802;2022-08-26T08:53:32;97530.38;;;44.67;51.42
32492;BME280;20605;49.742;18.802;2022-08-26T08:56:09;97533.67;;;44.66;51.64
32492;BME280;20605;49.742;18.802;2022-08-26T08:58:50;97529.05;;;44.82;51.45
32492;BME280;20605;49.742;18.802;2022-08-26T09:07:52;97519.39;;;44.62;50.54
32492;BME280;20605;49.742;18.802;2022-08-26T09:10:39;97526.26;;;44.64;51.56
32492;BME280;20605;49.742;18.802;2022-08-26T09:13:12;97520.50;;;45.06;50.97
32492;BME280;20605;49.742;18.802;2022-08-26T09:18:47;97519.67;;;45.16;48.91
32492;BME280;20605;49.742;18.802;2022-08-26T09:21:21;97509.78;;;44.77;49.68
32492;BME280;20605;49.742;18.802;2022-08-26T09:23:50;97516.09;;;44.65;50.37
32492;BME280;20605;49.742;18.802;2022-08-26T09:26:28;97515.02;;;44.99;49.91
32492;BME280;20605;49.742;18.802;2022-08-26T09:31:29;97512.27;;;44.96;48.62
32492;BME280;20605;49.742;18.802;2022-08-26T09:36:48;97505.09;;;44.44;49.39
32492;BME280;20605;49.742;18.802;2022-08-26T09:39:35;97500.92;;;44.29;50.32
32492;BME280;20605;49.742;18.802;2022-08-26T09:42:21;97505.84;;;44.04;50.66
32492;BME280;20605;49.742;18.802;2022-08-26T09:45:01;97494.48;;;43.31;50.57
32492;BME280;20605;49.742;18.802;2022-08-26T09:47:36;97501.91;;;42.61;51.50
32492;BME280;20605;49.742;18.802;2022-08-26T09:53:20;97493.69;;;41.42;51.46
32492;BME280;20605;49.742;18.802;2022-08-26T09:56:09;97494.58;;;40.44;53.17
32492;BME280;20605;49.742;18.802;2022-08-26T09:58:39;97497.98;;;39.42;55.38
32492;BME280;20605;49.742;18.802;2022-08-26T10:03:45;97491.72;;;37.70;57.90
32492;BME280;20605;49.742;18.802;2022-08-26T10:08:49;97490.15;;;35.98;60.68
32492;BME280;20605;49.742;18.802;2022-08-26T10:14:01;97485.56;;;34.72;63.29
32492;BME280;20605;49.742;18.802;2022-08-26T10:19:53;97475.77;;;33.63;65.41
32492;BME280;20605;49.742;18.802;2022-08-26T10:22:52;97474.20;;;33.24;66.58
32492;BME280;20605;49.742;18.802;2022-08-26T10:25:51;97481.14;;;32.88;67.59
32492;BME280;20605;49.742;18.802;2022-08-26T10:28:42;97475.97;;;32.26;68.42
32492;BME280;20605;49.742;18.802;2022-08-26T10:31:37;97474.38;;;31.85;69.16
32492;BME280;20605;49.742;18.802;2022-08-26T10:34:09;97477.64;;;31.66;70.42
32492;BME280;20605;49.742;18.802;2022-08-26T10:36:40;97478.06;;;31.33;71.07
32492;BME280;20605;49.742;18.802;2022-08-26T10:39:25;97476.80;;;31.14;72.42
32492;BME280;20605;49.742;18.802;2022-08-26T10:42:09;97470.45;;;30.93;73.75
32492;BME280;20605;49.742;18.802;2022-08-26T10:44:42;97474.98;;;30.77;73.81
32492;BME280;20605;49.742;18.802;2022-08-26T10:47:16;97471.94;;;30.62;74.44
32492;BME280;20605;49.742;18.802;2022-08-26T10:49:48;97470.67;;;30.49;74.70
32492;BME280;20605;49.742;18.802;2022-08-26T10:52:24;97472.20;;;30.48;74.88
32492;BME280;20605;49.742;18.802;2022-08-26T10:58:27;97468.62;;;30.14;76.72
32492;BME280;20605;49.742;18.802;2022-08-26T11:01:02;97470.55;;;29.97;77.50
32492;BME280;20605;49.742;18.802;2022-08-26T11:06:41;97467.47;;;29.85;78.56
32492;BME280;20605;49.742;18.802;2022-08-26T11:09:09;97465.14;;;29.82;78.76
32492;BME280;20605;49.742;18.802;2022-08-26T11:11:45;97462.45;;;29.82;79.29
32492;BME280;20605;49.742;18.802;2022-08-26T11:16:52;97453.27;;;29.77;80.10
32492;BME280;20605;49.742;18.802;2022-08-26T11:25:08;97452.95;;;29.72;81.07
32492;BME280;20605;49.742;18.802;2022-08-26T11:32:51;97441.48;;;29.82;80.42
32492;BME280;20605;49.742;18.802;2022-08-26T11:38:14;97432.63;;;29.77;80.97
32492;BME280;20605;49.742;18.802;2022-08-26T11:40:42;97431.73;;;29.85;81.05
32492;BME280;20605;49.742;18.802;2022-08-26T11:43:16;97426.21;;;29.82;80.87
32492;BME280;20605;49.742;18.802;2022-08-26T11:45:46;97422.23;;;29.74;81.10
32492;BME280;20605;49.742;18.802;2022-08-26T11:48:21;97423.41;;;29.76;81.41
32492;BME280;20605;49.742;18.802;2022-08-26T11:51:05;97426.06;;;29.80;81.72
32492;BME280;20605;49.742;18.802;2022-08-26T11:53:40;97430.80;;;29.93;81.35
32492;BME280;20605;49.742;18.802;2022-08-26T11:56:08;97427.85;;;29.88;80.86
32492;BME280;20605;49.742;18.802;2022-08-26T11:58:41;97431.31;;;29.92;80.97
32492;BME280;20605;49.742;18.802;2022-08-26T12:01:10;97433.13;;;29.96;81.05
32492;BME280;20605;49.742;18.802;2022-08-26T12:03:45;97432.09;;;30.05;81.03
32492;BME280;20605;49.742;18.802;2022-08-26T12:09:04;97429.19;;;30.10;80.98
32492;BME280;20605;49.742;18.802;2022-08-26T12:11:35;97428.91;;;30.24;81.01
32492;BME280;20605;49.742;18.802;2022-08-26T12:14:05;97434.94;;;30.26;80.82
32492;BME280;20605;49.742;18.802;2022-08-26T12:16:37;97438.17;;;30.22;80.71
32492;BME280;20605;49.742;18.802;2022-08-26T12:19:31;97430.07;;;30.26;80.68
32492;BME280;20605;49.742;18.802;2022-08-26T12:22:05;97427.67;;;30.31;80.15
32492;BME280;20605;49.742;18.802;2022-08-26T12:25:00;97430.94;;;30.22;80.39
32492;BME280;20605;49.742;18.802;2022-08-26T12:27:37;97431.45;;;30.22;80.48
32492;BME280;20605;49.742;18.802;2022-08-26T17:52:05;97277.08;;;24.82;100.00
32492;BME280;20605;49.742;18.802;2022-08-26T17:54:32;97270.83;;;24.73;100.00
32492;BME280;20605;49.742;18.802;2022-08-26T17:56:58;97279.45;;;24.67;100.00
32492;BME280;20605;49.742;18.802;2022-08-26T17:59:25;97271.52;;;24.58;100.00
32492;BME280;20605;49.742;18.802;2022-08-26T18:01:54;97283.05;;;24.49;100.00
32492;BME280;20605;49.742;18.802;2022-08-26T18:04:23;97283.88;;;24.35;100.00
32492;BME280;20605;49.742;18.802;2022-08-26T18:07:00;97284.53;;;24.24;100.00
32492;BME280;20605;49.742;18.802;2022-08-26T18:09:29;97285.55;;;24.13;100.00
32492;BME280;20605;49.742;18.802;2022-08-26T18:11:58;97291.45;;;24.07;100.00
32492;BME280;20605;49.742;18.802;2022-08-26T18:14:26;97294.97;;;23.98;100.00
32492;BME280;20605;49.742;18.802;2022-08-26T18:17:03;97295.34;;;23.89;100.00
32492;BME280;20605;49.742;18.802;2022-08-26T18:19:27;97290.39;;;23.81;100.00
32492;BME280;20605;49.742;18.802;2022-08-26T18:21:54;97294.25;;;23.72;100.00
32492;BME280;20605;49.742;18.802;2022-08-26T18:24:21;97288.81;;;23.64;100.00
32492;BME280;20605;49.742;18.802;2022-08-26T18:26:48;97291.48;;;23.55;100.00
32492;BME280;20605;49.742;18.802;2022-08-26T18:29:17;97287.61;;;23.43;100.00
32492;BME280;20605;49.742;18.802;2022-08-26T18:31:46;97290.30;;;23.34;100.00
32492;BME280;20605;49.742;18.802;2022-08-26T18:34:15;97279.73;;;23.19;100.00
32492;BME280;20605;49.742;18.802;2022-08-26T18:36:42;97287.01;;;23.17;100.00
32492;BME280;20605;49.742;18.802;2022-08-26T18:39:10;97291.77;;;23.13;100.00
32492;BME280;20605;49.742;18.802;2022-08-26T18:41:41;97286.94;;;23.13;100.00
32492;BME280;20605;49.742;18.802;2022-08-26T18:44:11;97293.72;;;23.11;100.00
32492;BME280;20605;49.742;18.802;2022-08-26T18:46:39;97290.50;;;23.07;100.00
32492;BME280;20605;49.742;18.802;2022-08-26T18:49:10;97296.36;;;23.01;100.00
32492;BME280;20605;49.742;18.802;2022-08-26T18:51:35;97298.67;;;23.00;100.00
32492;BME280;20605;49.742;18.802;2022-08-26T18:54:04;97295.23;;;22.94;100.00
32492;BME280;20605;49.742;18.802;2022-08-26T18:56:34;97295.08;;;22.86;100.00
32492;BME280;20605;49.742;18.802;2022-08-26T18:59:09;97289.83;;;22.81;100.00
32492;BME280;20605;49.742;18.802;2022-08-26T19:01:42;97292.16;;;22.74;100.00
32492;BME280;20605;49.742;18.802;2022-08-26T19:04:10;97287.87;;;22.67;100.00
32492;BME280;20605;49.742;18.802;2022-08-26T19:06:40;97297.72;;;22.61;100.00
32492;BME280;20605;49.742;18.802;2022-08-26T19:09:09;97297.02;;;22.59;100.00
32492;BME280;20605;49.742;18.802;2022-08-26T19:11:39;97303.34;;;22.53;100.00
32492;BME280;20605;49.742;18.802;2022-08-26T19:14:07;97310.25;;;22.50;100.00
32492;BME280;20605;49.742;18.802;2022-08-26T19:16:35;97305.61;;;22.42;100.00
32492;BME280;20605;49.742;18.802;2022-08-26T19:19:06;97310.26;;;22.34;100.00
32492;BME280;20605;49.742;18.802;2022-08-26T19:21:34;97307.66;;;22.29;100.00
32492;BME280;20605;49.742;18.802;2022-08-26T19:24:05;97304.34;;;22.21;100.00